createdAt,value
2018-07-15T00:00:05.718Z,19.43
2018-07-15T00:01:05.725Z,19.39
2018-07-15T00:02:05.742Z,19.40
2018-07-15T00:03:05.777Z,19.39
2018-07-15T00:04:05.752Z,19.32
2018-07-15T00:05:05.767Z,19.35
2018-07-15T00:06:05.791Z,19.34
2018-07-15T00:07:05.804Z,19.24
2018-07-15T00:08:05.805Z,19.27
2018-07-15T00:09:05.812Z,19.27
2018-07-15T00:10:05.818Z,19.27
2018-07-15T00:11:05.839Z,19.27
2018-07-15T00:12:05.844Z,19.34
2018-07-15T00:13:05.858Z,19.28
2018-07-15T00:14:05.866Z,19.24
2018-07-15T00:15:05.904Z,19.21
2018-07-15T00:16:05.896Z,19.20
2018-07-15T00:17:05.919Z,19.16
2018-07-15T00:18:05.920Z,19.12
2018-07-15T00:19:05.942Z,19.16
2018-07-15T00:20:05.941Z,19.12
2018-07-15T00:21:05.971Z,19.07
2018-07-15T00:22:05.963Z,19.10
2018-07-15T00:23:05.978Z,19.12
2018-07-15T00:24:05.992Z,19.09
2018-07-15T00:25:06.004Z,19.10
2018-07-15T00:26:06.017Z,19.09
2018-07-15T00:27:06.022Z,18.99
2018-07-15T00:28:06.028Z,19.05
2018-07-15T00:29:06.048Z,19.01
2018-07-15T00:30:06.066Z,18.91
2018-07-15T00:31:06.075Z,18.87
2018-07-15T00:32:06.086Z,18.96
2018-07-15T00:33:06.096Z,18.86
2018-07-15T00:34:06.105Z,18.87
2018-07-15T00:35:06.115Z,18.89
2018-07-15T00:36:06.136Z,18.86
2018-07-15T00:37:06.138Z,18.90
2018-07-15T00:39:06.166Z,18.78
2018-07-15T00:40:06.168Z,18.75
2018-07-15T00:41:06.184Z,18.75
2018-07-15T00:42:06.205Z,18.72
2018-07-15T00:43:06.210Z,18.62
2018-07-15T00:44:06.213Z,18.71
2018-07-15T00:45:06.238Z,18.68
2018-07-15T00:46:06.250Z,18.54
2018-07-15T00:47:06.250Z,18.69
2018-07-15T00:48:06.264Z,18.56
2018-07-15T00:49:06.276Z,18.68
2018-07-15T00:50:06.291Z,18.66
2018-07-15T00:51:06.295Z,18.65
2018-07-15T00:52:06.305Z,18.64
2018-07-15T00:53:06.319Z,18.57
2018-07-15T00:54:06.335Z,18.57
2018-07-15T00:55:06.350Z,18.51
2018-07-15T00:56:06.371Z,18.65
2018-07-15T00:57:06.380Z,18.53
2018-07-15T00:58:06.373Z,18.51
2018-07-15T00:59:06.388Z,18.62
2018-07-15T01:00:06.400Z,18.53
2018-07-15T01:01:06.412Z,18.54
2018-07-15T01:02:06.424Z,18.51
2018-07-15T01:03:06.431Z,18.47
2018-07-15T01:04:06.439Z,18.42
2018-07-15T01:05:06.460Z,18.46
2018-07-15T01:06:06.468Z,18.47
2018-07-15T01:07:06.490Z,18.46
2018-07-15T01:08:06.484Z,18.38
2018-07-15T01:09:06.499Z,18.39
2018-07-15T01:10:06.510Z,18.36
2018-07-15T01:11:06.522Z,18.31
2018-07-15T01:12:06.541Z,18.38
2018-07-15T01:13:06.550Z,18.42
2018-07-15T01:14:06.557Z,18.34
2018-07-15T01:15:06.570Z,18.25
2018-07-15T01:16:06.576Z,18.32
2018-07-15T01:17:06.599Z,18.25
2018-07-15T01:18:06.614Z,18.34
2018-07-15T01:19:06.614Z,18.29
2018-07-15T01:20:06.637Z,18.29
2018-07-15T01:21:06.638Z,18.25
2018-07-15T01:22:06.646Z,18.17
2018-07-15T01:23:06.659Z,18.17
2018-07-15T01:24:06.770Z,18.17
2018-07-15T01:25:06.682Z,18.23
2018-07-15T01:26:06.720Z,18.25
2018-07-15T01:27:06.711Z,18.14
2018-07-15T01:28:06.722Z,18.16
2018-07-15T01:29:06.721Z,18.21
2018-07-15T01:30:06.730Z,18.16
2018-07-15T01:31:06.747Z,18.17
2018-07-15T01:32:06.761Z,18.13
2018-07-15T01:33:06.768Z,18.21
2018-07-15T01:34:06.784Z,18.16
2018-07-15T01:35:06.801Z,18.19
2018-07-15T01:36:06.811Z,18.16
2018-07-15T01:37:06.819Z,18.11
2018-07-15T01:38:06.829Z,18.05
2018-07-15T01:39:06.841Z,18.07
2018-07-15T01:40:06.845Z,18.10
2018-07-15T01:41:06.862Z,18.02
2018-07-15T01:42:06.873Z,17.99
2018-07-15T01:43:06.879Z,17.99
2018-07-15T01:44:06.892Z,18.07
2018-07-15T01:45:06.908Z,17.95
2018-07-15T01:46:06.924Z,17.99
2018-07-15T01:47:06.926Z,18.01
2018-07-15T01:48:06.942Z,18.01
2018-07-15T01:49:06.943Z,17.87
2018-07-15T01:50:06.976Z,17.89
2018-07-15T01:51:06.974Z,17.95
2018-07-15T01:52:06.974Z,18.01
2018-07-15T01:53:06.992Z,17.98
2018-07-15T01:54:07.001Z,17.91
2018-07-15T01:55:07.024Z,17.92
2018-07-15T01:56:07.034Z,17.91
2018-07-15T01:57:07.036Z,17.87
2018-07-15T01:58:07.053Z,17.87
2018-07-15T01:59:07.066Z,17.92
2018-07-15T02:00:07.073Z,17.89
2018-07-15T02:01:07.086Z,17.89
2018-07-15T02:02:07.091Z,17.91
2018-07-15T02:03:07.105Z,17.84
2018-07-15T02:04:07.108Z,17.86
2018-07-15T02:05:07.126Z,17.84
2018-07-15T02:06:07.135Z,17.84
2018-07-15T02:07:07.152Z,17.83
2018-07-15T02:08:07.162Z,17.77
2018-07-15T02:09:07.169Z,17.73
2018-07-15T02:10:07.188Z,17.66
2018-07-15T02:11:07.190Z,17.73
2018-07-15T02:12:07.197Z,17.65
2018-07-15T02:13:07.222Z,17.68
2018-07-15T02:14:07.223Z,17.63
2018-07-15T02:15:07.235Z,17.60
2018-07-15T02:16:07.242Z,17.62
2018-07-15T02:17:07.260Z,17.58
2018-07-15T02:18:07.272Z,17.65
2018-07-15T02:19:07.278Z,17.73
2018-07-15T02:20:07.291Z,17.66
2018-07-15T02:21:07.297Z,17.58
2018-07-15T02:22:07.310Z,17.68
2018-07-15T02:23:07.323Z,17.63
2018-07-15T02:24:07.342Z,17.60
2018-07-15T02:25:07.345Z,17.55
2018-07-15T02:26:07.358Z,17.53
2018-07-15T02:27:07.364Z,17.51
2018-07-15T02:28:07.385Z,17.63
2018-07-15T02:29:07.390Z,17.53
2018-07-15T02:30:07.405Z,17.53
2018-07-15T02:31:07.401Z,17.53
2018-07-15T02:32:07.420Z,17.57
2018-07-15T02:33:07.439Z,17.49
2018-07-15T02:34:07.446Z,17.45
2018-07-15T02:35:07.457Z,17.47
2018-07-15T02:36:07.464Z,17.47
2018-07-15T02:37:07.476Z,17.53
2018-07-15T02:38:07.486Z,17.53
2018-07-15T02:39:07.501Z,17.49
2018-07-15T02:40:07.510Z,17.53
2018-07-15T02:41:07.529Z,17.53
2018-07-15T02:42:07.532Z,17.54
2018-07-15T02:43:07.539Z,17.45
2018-07-15T02:44:07.549Z,17.38
2018-07-15T02:45:07.562Z,17.42
2018-07-15T02:46:07.577Z,17.35
2018-07-15T02:47:07.587Z,17.39
2018-07-15T02:48:07.595Z,17.33
2018-07-15T02:49:07.606Z,17.28
2018-07-15T02:50:07.618Z,17.20
2018-07-15T02:51:07.629Z,17.21
2018-07-15T02:52:07.643Z,17.18
2018-07-15T02:53:07.649Z,17.17
2018-07-15T02:54:07.656Z,17.10
2018-07-15T02:55:07.671Z,17.06
2018-07-15T02:56:07.691Z,17.14
2018-07-15T02:57:07.691Z,17.09
2018-07-15T02:58:07.709Z,17.06
2018-07-15T02:59:07.713Z,17.10
2018-07-15T03:00:07.723Z,17.12
2018-07-15T03:01:07.736Z,17.12
2018-07-15T03:02:07.747Z,17.09
2018-07-15T03:03:07.757Z,17.14
2018-07-15T03:04:07.772Z,17.03
2018-07-15T03:05:07.776Z,17.03
2018-07-15T03:06:07.787Z,17.09
2018-07-15T03:07:07.797Z,17.10
2018-07-15T03:08:07.808Z,17.14
2018-07-15T03:09:07.825Z,17.12
2018-07-15T03:10:07.830Z,17.07
2018-07-15T03:11:07.837Z,17.05
2018-07-15T03:12:07.857Z,17.17
2018-07-15T03:13:07.864Z,17.10
2018-07-15T03:14:07.871Z,17.09
2018-07-15T03:15:07.887Z,17.09
2018-07-15T03:16:07.898Z,17.14
2018-07-15T03:17:07.909Z,17.07
2018-07-15T03:18:07.920Z,17.09
2018-07-15T03:19:07.925Z,17.03
2018-07-15T03:20:07.954Z,17.00
2018-07-15T03:21:07.951Z,17.03
2018-07-15T03:22:07.959Z,16.88
2018-07-15T03:23:07.972Z,17.00
2018-07-15T03:24:07.982Z,16.90
2018-07-15T03:25:07.989Z,16.99
2018-07-15T03:26:07.997Z,16.99
2018-07-15T03:27:08.011Z,16.92
2018-07-15T03:28:08.024Z,16.85
2018-07-15T03:29:08.043Z,16.99
2018-07-15T03:30:08.050Z,16.92
2018-07-15T03:31:08.059Z,16.88
2018-07-15T03:32:08.090Z,16.84
2018-07-15T03:33:08.087Z,16.90
2018-07-15T03:34:08.136Z,16.95
2018-07-15T03:35:08.113Z,17.02
2018-07-15T03:36:08.111Z,16.92
2018-07-15T03:37:08.123Z,17.03
2018-07-15T03:38:08.131Z,17.03
2018-07-15T03:39:08.144Z,16.98
2018-07-15T03:40:08.154Z,17.02
2018-07-15T03:41:08.169Z,16.99
2018-07-15T03:42:08.175Z,16.99
2018-07-15T03:43:08.191Z,16.98
2018-07-15T03:44:08.197Z,16.90
2018-07-15T03:45:08.210Z,16.96
2018-07-15T03:46:08.214Z,17.00
2018-07-15T03:47:08.230Z,17.06
2018-07-15T03:48:08.238Z,16.92
2018-07-15T03:49:08.247Z,16.95
2018-07-15T03:50:08.252Z,16.91
2018-07-15T03:51:08.264Z,16.90
2018-07-15T03:52:08.279Z,16.95
2018-07-15T03:53:08.292Z,16.98
2018-07-15T03:54:08.301Z,16.91
2018-07-15T03:55:08.314Z,16.88
2018-07-15T03:56:08.324Z,16.85
2018-07-15T03:57:08.337Z,16.81
2018-07-15T03:58:08.347Z,16.87
2018-07-15T03:59:08.353Z,16.88
2018-07-15T04:00:08.467Z,16.84
2018-07-15T04:01:08.384Z,16.81
2018-07-15T04:02:08.383Z,16.70
2018-07-15T04:03:08.397Z,16.72
2018-07-15T04:04:08.409Z,16.77
2018-07-15T04:05:08.410Z,16.66
2018-07-15T04:06:08.421Z,16.72
2018-07-15T04:07:08.439Z,16.77
2018-07-15T04:08:08.452Z,16.70
2018-07-15T04:09:08.457Z,16.63
2018-07-15T04:10:08.469Z,16.70
2018-07-15T04:11:08.495Z,16.73
2018-07-15T04:12:08.502Z,16.69
2018-07-15T04:13:08.507Z,16.75
2018-07-15T04:14:08.513Z,16.73
2018-07-15T04:15:08.521Z,16.82
2018-07-15T04:16:08.536Z,16.85
2018-07-15T04:17:08.544Z,16.81
2018-07-15T04:18:08.555Z,16.73
2018-07-15T04:19:08.568Z,16.87
2018-07-15T04:20:08.581Z,16.85
2018-07-15T04:21:08.588Z,16.81
2018-07-15T04:22:08.739Z,16.84
2018-07-15T04:23:08.604Z,16.91
2018-07-15T04:24:08.615Z,16.84
2018-07-15T04:25:08.632Z,16.85
2018-07-15T04:26:08.637Z,16.88
2018-07-15T04:27:08.652Z,16.90
2018-07-15T04:28:08.680Z,16.81
2018-07-15T04:29:08.674Z,16.91
2018-07-15T04:30:08.685Z,16.95
2018-07-15T04:31:08.701Z,16.92
2018-07-15T04:32:08.697Z,16.95
2018-07-15T04:33:08.716Z,16.85
2018-07-15T04:34:08.726Z,17.02
2018-07-15T04:35:08.734Z,17.05
2018-07-15T04:36:08.750Z,17.00
2018-07-15T04:37:08.771Z,16.98
2018-07-15T04:38:08.774Z,17.00
2018-07-15T04:39:08.780Z,17.00
2018-07-15T04:40:08.788Z,17.00
2018-07-15T04:41:08.802Z,17.05
2018-07-15T04:42:08.809Z,17.06
2018-07-15T04:43:08.820Z,17.07
2018-07-15T04:44:08.835Z,17.07
2018-07-15T04:45:08.841Z,17.09
2018-07-15T04:46:08.851Z,17.12
2018-07-15T04:47:08.860Z,17.14
2018-07-15T04:48:08.874Z,17.18
2018-07-15T04:49:08.886Z,17.17
2018-07-15T04:50:08.896Z,17.21
2018-07-15T04:51:08.905Z,17.17
2018-07-15T04:52:08.918Z,17.10
2018-07-15T04:53:08.927Z,17.30
2018-07-15T04:54:08.939Z,17.17
2018-07-15T04:55:08.953Z,17.22
2018-07-15T04:56:08.959Z,17.27
2018-07-15T04:57:08.970Z,17.18
2018-07-15T04:58:08.979Z,17.12
2018-07-15T04:59:08.991Z,17.24
2018-07-15T05:00:09.001Z,17.22
2018-07-15T05:01:09.023Z,17.15
2018-07-15T05:02:09.117Z,17.20
2018-07-15T05:03:09.032Z,17.27
2018-07-15T05:04:09.050Z,17.18
2018-07-15T05:05:09.063Z,17.22
2018-07-15T05:06:09.069Z,17.22
2018-07-15T05:07:09.080Z,17.28
2018-07-15T05:08:09.094Z,17.30
2018-07-15T05:09:09.107Z,17.27
2018-07-15T05:10:09.113Z,17.28
2018-07-15T05:11:09.129Z,17.32
2018-07-15T05:12:09.131Z,17.24
2018-07-15T05:13:09.148Z,17.21
2018-07-15T05:14:09.157Z,17.30
2018-07-15T05:15:09.168Z,17.27
2018-07-15T05:16:09.174Z,17.36
2018-07-15T05:17:09.193Z,17.43
2018-07-15T05:18:09.193Z,17.43
2018-07-15T05:19:09.207Z,17.49
2018-07-15T05:20:09.220Z,17.51
2018-07-15T05:21:09.235Z,17.47
2018-07-15T05:22:09.248Z,17.51
2018-07-15T05:23:09.254Z,17.54
2018-07-15T05:24:09.268Z,17.54
2018-07-15T05:25:09.277Z,17.47
2018-07-15T05:26:09.274Z,17.53
2018-07-15T05:27:09.294Z,17.49
2018-07-15T05:28:09.309Z,17.51
2018-07-15T05:29:09.323Z,17.51
2018-07-15T05:30:09.328Z,17.53
2018-07-15T05:31:09.344Z,17.58
2018-07-15T05:32:09.359Z,17.46
2018-07-15T05:33:09.367Z,17.62
2018-07-15T05:34:09.380Z,17.51
2018-07-15T05:35:09.389Z,17.66
2018-07-15T05:36:09.402Z,17.70
2018-07-15T05:37:09.408Z,17.74
2018-07-15T05:38:09.422Z,17.89
2018-07-15T05:39:09.432Z,17.91
2018-07-15T05:40:09.441Z,17.84
2018-07-15T05:42:09.467Z,17.96
2018-07-15T05:43:09.476Z,17.98
2018-07-15T05:44:09.484Z,18.09
2018-07-15T05:45:09.508Z,18.05
2018-07-15T05:46:09.503Z,18.10
2018-07-15T05:47:09.524Z,18.16
2018-07-15T05:48:09.527Z,18.19
2018-07-15T05:50:09.548Z,18.23
2018-07-15T05:51:09.566Z,18.21
2018-07-15T05:52:09.569Z,18.26
2018-07-15T05:53:09.587Z,18.25
2018-07-15T05:54:09.596Z,18.31
2018-07-15T05:55:09.614Z,18.41
2018-07-15T05:56:09.625Z,18.23
2018-07-15T05:57:09.634Z,18.25
2018-07-15T05:58:09.642Z,18.26
2018-07-15T05:59:09.650Z,18.38
2018-07-15T06:00:09.664Z,18.41
2018-07-15T06:01:09.681Z,18.31
2018-07-15T06:02:09.683Z,18.34
2018-07-15T06:03:09.695Z,18.38
2018-07-15T06:04:09.703Z,18.49
2018-07-15T06:05:09.723Z,18.56
2018-07-15T06:06:09.731Z,18.49
2018-07-15T06:07:09.754Z,18.57
2018-07-15T06:08:09.760Z,18.68
2018-07-15T06:09:09.769Z,18.68
2018-07-15T06:10:09.779Z,18.56
2018-07-15T06:11:09.792Z,18.59
2018-07-15T06:12:09.801Z,18.64
2018-07-15T06:13:09.814Z,18.57
2018-07-15T06:14:09.823Z,18.65
2018-07-15T06:15:09.836Z,18.69
2018-07-15T06:16:09.851Z,18.79
2018-07-15T06:17:09.951Z,18.83
2018-07-15T06:18:09.863Z,18.87
2018-07-15T06:19:09.883Z,18.90
2018-07-15T06:20:09.902Z,18.91
2018-07-15T06:21:10.780Z,18.91
2018-07-15T06:22:09.923Z,18.97
2018-07-15T06:23:10.788Z,19.05
2018-07-15T06:24:09.939Z,19.06
2018-07-15T06:25:09.953Z,19.10
2018-07-15T06:26:09.965Z,19.24
2018-07-15T06:27:09.980Z,19.23
2018-07-15T06:28:09.989Z,19.15
2018-07-15T06:29:10.005Z,19.20
2018-07-15T06:30:10.020Z,19.23
2018-07-15T06:31:10.025Z,19.30
2018-07-15T06:32:10.039Z,19.38
2018-07-15T06:33:10.045Z,19.43
2018-07-15T06:34:10.067Z,19.47
2018-07-15T06:35:10.071Z,19.61
2018-07-15T06:36:10.087Z,19.68
2018-07-15T06:37:10.109Z,19.67
2018-07-15T06:38:10.119Z,19.82
2018-07-15T06:39:10.127Z,20.02
2018-07-15T06:40:10.165Z,20.00
2018-07-15T06:41:10.162Z,20.04
2018-07-15T06:42:10.174Z,20.13
2018-07-15T06:43:10.185Z,20.22
2018-07-15T06:44:10.201Z,20.34
2018-07-15T06:45:10.224Z,20.35
2018-07-15T06:46:10.230Z,20.34
2018-07-15T06:47:10.251Z,20.51
2018-07-15T06:48:10.262Z,20.51
2018-07-15T06:49:10.337Z,20.56
2018-07-15T06:50:10.297Z,20.51
2018-07-15T06:51:10.313Z,20.57
2018-07-15T06:52:10.326Z,20.60
2018-07-15T06:53:10.352Z,20.61
2018-07-15T06:54:10.358Z,20.66
2018-07-15T06:55:10.378Z,20.69
2018-07-15T06:56:10.394Z,20.73
2018-07-15T06:57:10.416Z,20.78
2018-07-15T06:58:10.431Z,20.72
2018-07-15T06:59:10.442Z,20.81
2018-07-15T07:00:10.464Z,20.85
2018-07-15T07:01:10.476Z,20.87
2018-07-15T07:02:10.496Z,20.97
2018-07-15T07:03:10.521Z,21.03
2018-07-15T07:04:10.528Z,21.03
2018-07-15T07:05:10.547Z,20.97
2018-07-15T07:06:10.564Z,20.98
2018-07-15T07:07:10.646Z,21.11
2018-07-15T07:08:10.602Z,21.27
2018-07-15T07:09:10.617Z,21.28
2018-07-15T07:10:10.628Z,21.34
2018-07-15T07:11:10.647Z,21.49
2018-07-15T07:12:10.665Z,21.61
2018-07-15T07:13:10.686Z,21.75
2018-07-15T07:14:10.732Z,21.73
2018-07-15T07:15:10.715Z,21.83
2018-07-15T07:16:10.739Z,21.90
2018-07-15T07:17:10.755Z,21.94
2018-07-15T07:18:10.761Z,22.04
2018-07-15T07:19:10.779Z,22.05
2018-07-15T07:20:10.795Z,22.05
2018-07-15T07:21:10.816Z,21.98
2018-07-15T07:22:10.832Z,21.86
2018-07-15T07:23:10.853Z,21.83
2018-07-15T07:24:10.875Z,21.96
2018-07-15T07:25:10.889Z,22.06
2018-07-15T07:26:10.900Z,22.24
2018-07-15T07:27:10.921Z,22.36
2018-07-15T07:28:10.937Z,22.31
2018-07-15T07:29:10.955Z,22.33
2018-07-15T07:30:10.979Z,22.38
2018-07-15T07:31:10.987Z,22.54
2018-07-15T07:32:11.009Z,22.64
2018-07-15T07:33:11.028Z,22.67
2018-07-15T07:34:11.040Z,22.79
2018-07-15T07:35:11.067Z,22.72
2018-07-15T07:36:11.079Z,22.75
2018-07-15T07:37:11.103Z,22.81
2018-07-15T07:38:11.124Z,22.86
2018-07-15T07:39:11.132Z,23.06
2018-07-15T07:40:11.156Z,23.12
2018-07-15T07:41:11.210Z,23.07
2018-07-15T07:42:11.194Z,23.06
2018-07-15T07:43:11.201Z,23.01
2018-07-15T07:44:11.221Z,23.06
2018-07-15T07:45:11.287Z,23.09
2018-07-15T07:46:11.259Z,23.19
2018-07-15T07:47:11.275Z,23.11
2018-07-15T07:48:11.292Z,23.18
2018-07-15T07:49:11.321Z,23.06
2018-07-15T07:50:11.326Z,23.21
2018-07-15T07:51:11.345Z,23.26
2018-07-15T07:52:11.364Z,23.34
2018-07-15T07:53:11.416Z,23.56
2018-07-15T07:54:11.404Z,23.44
2018-07-15T07:55:11.422Z,23.59
2018-07-15T07:56:11.435Z,23.63
2018-07-15T07:57:11.456Z,23.68
2018-07-15T07:58:11.479Z,23.81
2018-07-15T07:59:11.489Z,23.86
2018-07-15T08:00:11.514Z,23.74
2018-07-15T08:01:11.537Z,23.62
2018-07-15T08:02:11.548Z,23.81
2018-07-15T08:03:11.576Z,23.99
2018-07-15T08:04:11.586Z,24.14
2018-07-15T08:05:11.602Z,24.26
2018-07-15T08:06:11.619Z,24.37
2018-07-15T08:07:11.637Z,24.51
2018-07-15T08:08:11.664Z,24.59
2018-07-15T08:09:11.679Z,24.60
2018-07-15T08:10:11.691Z,24.71
2018-07-15T08:11:11.717Z,24.71
2018-07-15T08:12:11.727Z,24.82
2018-07-15T08:13:11.745Z,24.87
2018-07-15T08:14:11.770Z,25.09
2018-07-15T08:15:11.854Z,25.04
2018-07-15T08:16:11.810Z,25.08
2018-07-15T08:17:11.822Z,25.01
2018-07-15T08:18:11.840Z,24.90
2018-07-15T08:19:11.856Z,24.98
2018-07-15T08:20:11.874Z,24.84
2018-07-15T08:21:11.898Z,25.04
2018-07-15T08:22:11.923Z,25.08
2018-07-15T08:23:11.934Z,24.89
2018-07-15T08:24:11.943Z,24.79
2018-07-15T08:25:11.971Z,24.71
2018-07-15T08:26:11.989Z,24.66
2018-07-15T08:27:12.012Z,24.87
2018-07-15T08:28:12.162Z,25.07
2018-07-15T08:29:12.044Z,25.08
2018-07-15T08:30:12.065Z,24.90
2018-07-15T08:31:12.086Z,25.02
2018-07-15T08:32:12.100Z,25.05
2018-07-15T08:33:12.123Z,24.93
2018-07-15T08:34:12.142Z,25.17
2018-07-15T08:35:12.253Z,25.34
2018-07-15T08:36:12.181Z,25.45
2018-07-15T08:37:12.211Z,25.56
2018-07-15T08:38:12.212Z,25.66
2018-07-15T08:40:12.248Z,25.81
2018-07-15T08:41:12.276Z,25.89
2018-07-15T08:42:12.307Z,26.00
2018-07-15T08:43:12.310Z,26.00
2018-07-15T08:44:12.327Z,25.85
2018-07-15T08:45:12.348Z,25.90
2018-07-15T08:46:12.371Z,26.12
2018-07-15T08:47:12.396Z,26.24
2018-07-15T08:48:12.421Z,26.41
2018-07-15T08:49:12.430Z,26.59
2018-07-15T08:50:12.450Z,26.68
2018-07-15T08:51:12.474Z,26.59
2018-07-15T08:52:12.487Z,26.59
2018-07-15T08:53:12.518Z,26.47
2018-07-15T08:54:12.532Z,26.47
2018-07-15T08:55:12.547Z,26.59
2018-07-15T08:56:12.581Z,26.69
2018-07-15T08:57:12.586Z,26.90
2018-07-15T08:58:12.607Z,26.93
2018-07-15T08:59:12.628Z,26.97
2018-07-15T09:00:12.649Z,27.09
2018-07-15T09:01:12.666Z,27.20
2018-07-15T09:02:12.702Z,27.45
2018-07-15T09:03:12.708Z,27.58
2018-07-15T09:04:12.727Z,27.39
2018-07-15T09:05:12.758Z,27.50
2018-07-15T09:06:12.765Z,27.65
2018-07-15T09:07:12.791Z,27.78
2018-07-15T09:08:12.816Z,27.81
2018-07-15T09:09:12.854Z,27.98
2018-07-15T09:10:12.849Z,27.90
2018-07-15T09:11:12.868Z,27.86
2018-07-15T09:12:12.888Z,28.08
2018-07-15T09:13:12.913Z,27.99
2018-07-15T09:14:12.926Z,28.05
2018-07-15T09:16:12.972Z,28.39
2018-07-15T09:17:12.999Z,28.58
2018-07-15T09:19:13.025Z,28.40
2018-07-15T09:20:13.052Z,28.40
2018-07-15T09:21:13.071Z,28.40
2018-07-15T09:22:13.088Z,28.52
2018-07-15T09:23:13.114Z,28.79
2018-07-15T09:24:13.130Z,28.82
2018-07-15T09:25:13.152Z,28.83
2018-07-15T09:26:13.178Z,28.67
2018-07-15T09:27:13.190Z,28.79
2018-07-15T09:28:13.221Z,28.95
2018-07-15T09:29:13.236Z,29.12
2018-07-15T09:30:13.264Z,29.10
2018-07-15T09:31:13.277Z,28.92
2018-07-15T09:32:13.301Z,28.74
2018-07-15T09:33:13.317Z,28.77
2018-07-15T09:34:13.333Z,28.70
2018-07-15T09:35:13.420Z,28.69
2018-07-15T09:36:13.379Z,28.87
2018-07-15T09:37:13.398Z,29.21
2018-07-15T09:38:13.416Z,29.52
2018-07-15T09:40:13.459Z,29.94
2018-07-15T09:41:13.480Z,30.03
2018-07-15T09:42:13.499Z,30.38
2018-07-15T09:43:13.528Z,30.28
2018-07-15T09:44:13.549Z,30.38
2018-07-15T09:45:13.561Z,30.23
2018-07-15T09:46:13.584Z,30.11
2018-07-15T09:47:13.610Z,30.06
2018-07-15T09:48:13.630Z,30.16
2018-07-15T09:49:13.647Z,30.32
2018-07-15T09:50:13.665Z,30.28
2018-07-15T09:51:13.687Z,30.30
2018-07-15T09:52:13.711Z,30.34
2018-07-15T09:54:13.748Z,30.44
2018-07-15T09:55:13.779Z,30.30
2018-07-15T09:56:13.793Z,30.49
2018-07-15T09:57:13.825Z,30.79
2018-07-15T09:58:13.859Z,31.22
2018-07-15T09:59:13.854Z,31.38
2018-07-15T10:00:13.883Z,31.25
2018-07-15T10:01:13.899Z,31.22
2018-07-15T10:02:13.927Z,31.34
2018-07-15T10:03:13.941Z,31.56
2018-07-15T10:04:13.961Z,31.78
2018-07-15T10:05:13.984Z,31.90
2018-07-15T10:06:14.002Z,32.10
2018-07-15T10:07:14.991Z,32.22
2018-07-15T10:08:14.062Z,32.24
2018-07-15T10:09:14.071Z,31.90
2018-07-15T10:10:14.088Z,31.91
2018-07-15T10:11:14.117Z,32.10
2018-07-15T10:12:14.134Z,32.07
2018-07-15T10:13:14.146Z,32.24
2018-07-15T10:14:14.169Z,32.62
2018-07-15T10:15:14.198Z,32.81
2018-07-15T10:16:14.221Z,32.78
2018-07-15T10:17:14.238Z,32.87
2018-07-15T10:18:14.256Z,32.80
2018-07-15T10:19:14.285Z,32.69
2018-07-15T10:20:14.291Z,32.81
2018-07-15T10:21:14.314Z,32.95
2018-07-15T10:22:14.356Z,32.99
2018-07-15T10:23:14.365Z,32.85
2018-07-15T10:24:14.386Z,32.80
2018-07-15T10:25:14.423Z,32.78
2018-07-15T10:26:14.431Z,32.78
2018-07-15T10:27:14.447Z,32.77
2018-07-15T10:28:14.468Z,33.03
2018-07-15T10:29:14.492Z,33.05
2018-07-15T10:31:14.535Z,33.15
2018-07-15T10:32:14.557Z,33.53
2018-07-15T10:33:14.618Z,33.86
2018-07-15T10:34:14.597Z,33.53
2018-07-15T10:35:14.624Z,33.65
2018-07-15T10:36:14.636Z,33.86
2018-07-15T10:38:14.687Z,34.09
2018-07-15T10:39:15.523Z,33.92
2018-07-15T10:40:14.753Z,34.05
2018-07-15T10:41:14.741Z,34.23
2018-07-15T10:42:14.765Z,34.15
2018-07-15T10:43:14.795Z,33.94
2018-07-15T10:44:14.820Z,34.14
2018-07-15T10:45:14.839Z,34.55
2018-07-15T10:46:14.861Z,34.67
2018-07-15T10:47:14.885Z,34.27
2018-07-15T10:48:14.896Z,34.56
2018-07-15T10:49:14.922Z,34.65
2018-07-15T10:50:14.945Z,34.95
2018-07-15T10:51:14.977Z,34.93
2018-07-15T10:52:14.990Z,35.24
2018-07-15T10:53:15.011Z,35.29
2018-07-15T10:54:15.042Z,35.55
2018-07-15T10:55:15.059Z,35.77
2018-07-15T10:56:15.068Z,35.93
2018-07-15T10:57:15.085Z,35.95
2018-07-15T10:58:15.112Z,35.95
2018-07-15T10:59:15.142Z,35.66
2018-07-15T11:00:15.152Z,35.44
2018-07-15T11:01:15.194Z,35.56
2018-07-15T11:02:15.199Z,35.58
2018-07-15T11:03:15.223Z,35.66
2018-07-15T11:04:15.261Z,35.68
2018-07-15T11:05:15.275Z,36.02
2018-07-15T11:06:15.346Z,36.15
2018-07-15T11:07:15.313Z,36.31
2018-07-15T11:08:15.351Z,36.43
2018-07-15T11:09:15.348Z,36.53
2018-07-15T11:10:15.369Z,36.52
2018-07-15T11:11:15.409Z,36.67
2018-07-15T11:12:15.420Z,36.74
2018-07-15T11:13:15.496Z,36.97
2018-07-15T11:14:15.466Z,36.97
2018-07-15T11:15:15.508Z,37.27
2018-07-15T11:16:15.502Z,36.91
2018-07-15T11:17:15.522Z,36.94
2018-07-15T11:18:15.555Z,36.89
2018-07-15T11:19:15.568Z,37.08
2018-07-15T11:20:15.596Z,36.91
2018-07-15T11:21:15.624Z,37.16
2018-07-15T11:22:15.677Z,37.50
2018-07-15T11:23:15.657Z,37.62
2018-07-15T11:24:15.685Z,37.30
2018-07-15T11:25:15.704Z,36.59
2018-07-15T11:26:15.777Z,36.59
2018-07-15T11:27:15.746Z,37.02
2018-07-15T11:28:15.771Z,37.15
2018-07-15T11:29:15.796Z,37.34
2018-07-15T11:30:15.812Z,37.40
2018-07-15T11:31:15.911Z,37.35
2018-07-15T11:32:15.864Z,37.40
2018-07-15T11:33:15.875Z,37.70
2018-07-15T11:34:15.902Z,37.85
2018-07-15T11:35:15.923Z,37.97
2018-07-15T11:36:15.953Z,38.00
2018-07-15T11:37:15.962Z,38.15
2018-07-15T11:38:15.984Z,38.12
2018-07-15T11:39:16.018Z,38.28
2018-07-15T11:40:16.052Z,38.31
2018-07-15T11:41:16.052Z,38.55
2018-07-15T11:42:16.074Z,38.07
2018-07-15T11:43:16.110Z,36.21
2018-07-15T11:44:16.125Z,35.44
2018-07-15T11:45:16.153Z,35.62
2018-07-15T11:46:16.152Z,36.00
2018-07-15T11:47:16.179Z,36.79
2018-07-15T11:48:16.261Z,37.35
2018-07-15T11:49:16.229Z,38.12
2018-07-15T11:50:16.256Z,38.55
2018-07-15T11:51:16.267Z,38.67
2018-07-15T11:52:16.309Z,39.02
2018-07-15T11:53:16.320Z,39.06
2018-07-15T11:54:16.364Z,38.45
2018-07-15T11:55:16.372Z,37.87
2018-07-15T11:56:16.376Z,37.46
2018-07-15T11:57:16.400Z,37.66
2018-07-15T11:58:16.420Z,38.21
2018-07-15T11:59:16.439Z,38.19
2018-07-15T12:00:16.473Z,37.40
2018-07-15T12:01:16.494Z,37.05
2018-07-15T12:02:16.516Z,37.34
2018-07-15T12:03:16.536Z,37.50
2018-07-15T12:04:16.563Z,38.03
2018-07-15T12:05:16.580Z,38.33
2018-07-15T12:06:16.608Z,38.60
2018-07-15T12:07:16.625Z,39.05
2018-07-15T12:08:16.652Z,39.22
2018-07-15T12:09:16.667Z,39.05
2018-07-15T12:10:16.701Z,39.05
2018-07-15T12:11:16.719Z,39.16
2018-07-15T12:12:16.754Z,38.92
2018-07-15T12:13:16.750Z,38.65
2018-07-15T12:14:16.779Z,37.38
2018-07-15T12:15:16.799Z,37.42
2018-07-15T12:16:16.818Z,37.72
2018-07-15T12:17:16.838Z,38.12
2018-07-15T12:18:16.868Z,38.31
2018-07-15T12:19:16.882Z,38.47
2018-07-15T12:20:16.907Z,38.79
2018-07-15T12:21:16.940Z,38.95
2018-07-15T12:22:16.939Z,38.82
2018-07-15T12:23:16.972Z,39.17
2018-07-15T12:24:16.999Z,39.65
2018-07-15T12:25:17.020Z,39.85
2018-07-15T12:26:17.045Z,39.99
2018-07-15T12:27:17.065Z,39.75
2018-07-15T12:28:17.190Z,39.13
2018-07-15T12:29:17.113Z,38.25
2018-07-15T12:30:17.135Z,38.49
2018-07-15T12:31:17.151Z,38.82
2018-07-15T12:32:17.182Z,39.28
2018-07-15T12:33:17.195Z,39.82
2018-07-15T12:34:17.220Z,40.33
2018-07-15T12:35:17.242Z,40.60
2018-07-15T12:37:17.285Z,40.39
2018-07-15T12:38:17.317Z,40.54
2018-07-15T12:39:17.334Z,40.51
2018-07-15T12:40:17.353Z,40.76
2018-07-15T12:41:17.372Z,40.73
2018-07-15T12:42:17.404Z,40.85
2018-07-15T12:43:17.423Z,40.78
2018-07-15T12:44:17.447Z,40.67
2018-07-15T12:45:17.465Z,40.56
2018-07-15T12:46:17.490Z,40.95
2018-07-15T12:47:17.508Z,41.39
2018-07-15T12:49:17.570Z,42.20
2018-07-15T12:50:17.579Z,42.34
2018-07-15T12:51:17.596Z,42.61
2018-07-15T12:52:17.624Z,42.73
2018-07-15T12:53:17.647Z,41.04
2018-07-15T12:54:17.673Z,38.77
2018-07-15T12:55:17.694Z,38.22
2018-07-15T12:56:17.714Z,37.69
2018-07-15T12:57:17.735Z,38.00
2018-07-15T12:58:17.772Z,38.81
2018-07-15T12:59:17.785Z,39.62
2018-07-15T13:00:17.808Z,40.16
2018-07-15T13:01:17.872Z,40.78
2018-07-15T13:02:17.866Z,41.05
2018-07-15T13:03:17.868Z,41.42
2018-07-15T13:04:17.893Z,41.74